Time;durP1;ratioP1;P1;durP2;ratioP2;P2;SDS_P1;SDS_P2;PMS_P1;PMS_P2;Temp;Humidity;BMP_temperature;BMP_pressure;BME280_temperature;BME280_humidity;BME280_pressure;Samples;Min_cycle;Max_cycle;Signal;HPM_P1;HPM_P2
2023/07/21 00:01:07;;;;;;;4.30;2.28;;;15.30;99.90;;;;;;5094678;28;20024;-65
2023/07/21 00:03:34;;;;;;;2.63;2.10;;;15.20;99.90;;;;;;5094322;28;20027;-65
2023/07/21 00:06:06;;;;;;;4.80;2.53;;;15.20;99.90;;;;;;5095127;28;20051;-65
2023/07/21 00:08:35;;;;;;;5.55;2.50;;;15.20;99.90;;;;;;5093868;28;20032;-65
2023/07/21 00:11:02;;;;;;;3.65;2.20;;;15.10;99.90;;;;;;5094711;28;20523;-65
2023/07/21 00:13:29;;;;;;;4.07;2.35;;;15.10;99.90;;;;;;5094720;28;20026;-66
2023/07/21 00:15:56;;;;;;;8.20;2.40;;;15.10;99.90;;;;;;5095269;28;20063;-65
2023/07/21 00:18:22;;;;;;;3.70;2.75;;;15.10;99.90;;;;;;5088931;28;20032;-66
2023/07/21 00:20:49;;;;;;;3.35;2.30;;;15.10;99.90;;;;;;5094108;28;20093;-66
2023/07/21 00:23:19;;;;;;;4.07;3.03;;;15.10;99.90;;;;;;5075569;28;20426;-65
2023/07/21 00:25:45;;;;;;;3.60;2.22;;;15.20;99.90;;;;;;5085439;28;20028;-65
2023/07/21 00:28:12;;;;;;;3.45;2.42;;;15.20;99.90;;;;;;5093832;28;20085;-77
2023/07/21 00:30:37;;;;;;;4.88;2.60;;;15.10;99.90;;;;;;5085690;28;20032;-65
2023/07/21 00:33:04;;;;;;;4.20;2.80;;;15.10;99.90;;;;;;5092838;28;20028;-77
2023/07/21 00:35:31;;;;;;;2.17;1.85;;;15.00;99.90;;;;;;5094233;28;20043;-65
2023/07/21 00:38:00;;;;;;;2.80;2.10;;;15.00;99.90;;;;;;5094692;28;20063;-66
2023/07/21 00:40:26;;;;;;;6.47;2.42;;;14.90;99.90;;;;;;5087814;28;20031;-65
2023/07/21 00:42:52;;;;;;;3.70;2.30;;;14.80;99.90;;;;;;5093082;28;20028;-65
2023/07/21 00:45:18;;;;;;;4.47;2.87;;;14.80;99.90;;;;;;5098803;28;20028;-77
2023/07/21 00:47:44;;;;;;;5.57;2.73;;;14.70;99.90;;;;;;5101083;28;20069;-65
2023/07/21 00:50:11;;;;;;;10.38;2.13;;;14.70;99.90;;;;;;5097159;28;20354;-65
2023/07/21 00:52:38;;;;;;;5.22;2.63;;;14.60;99.90;;;;;;5090185;28;20032;-65
2023/07/21 00:55:05;;;;;;;2.95;2.30;;;14.60;99.90;;;;;;5100560;28;20028;-65
2023/07/21 00:57:32;;;;;;;8.02;3.08;;;14.60;99.90;;;;;;5101577;28;20647;-66
2023/07/21 00:59:58;;;;;;;3.85;2.50;;;14.60;99.90;;;;;;5100852;28;20412;-65
2023/07/21 01:02:24;;;;;;;4.90;3.13;;;14.60;99.90;;;;;;5101639;28;20035;-78
2023/07/21 01:04:51;;;;;;;3.47;3.10;;;14.60;99.90;;;;;;5101148;28;20558;-66
2023/07/21 01:07:18;;;;;;;5.45;3.15;;;14.60;99.90;;;;;;5097810;28;20024;-65
2023/07/21 01:09:45;;;;;;;4.65;3.28;;;14.60;99.90;;;;;;5089544;28;20024;-65
2023/07/21 01:12:11;;;;;;;3.90;2.95;;;14.60;99.90;;;;;;5100473;28;20326;-66
2023/07/21 01:14:37;;;;;;;;;;;14.60;99.90;;;;;;5097922;28;20056;-65
2023/07/21 01:17:06;;;;;;;7.37;3.47;;;14.70;99.90;;;;;;5090232;28;20000;-65
2023/07/21 01:19:34;;;;;;;4.75;3.63;;;14.60;99.90;;;;;;5098265;28;20758;-78
2023/07/21 01:22:10;;;;;;;9.10;3.65;;;14.70;99.90;;;;;;5095284;28;20027;-65
2023/07/21 01:24:49;;;;;;;7.07;3.58;;;14.70;99.90;;;;;;5094796;28;20024;-65
2023/07/21 01:27:16;;;;;;;6.10;4.00;;;14.70;99.90;;;;;;5100976;28;20277;-66
2023/07/21 01:29:43;;;;;;;7.45;3.55;;;14.70;99.90;;;;;;5098911;28;20098;-65
2023/07/21 01:32:12;;;;;;;5.97;3.67;;;14.70;99.90;;;;;;5099776;28;20166;-65
2023/07/21 01:34:39;;;;;;;5.82;3.88;;;14.80;99.90;;;;;;5088480;28;20032;-65
2023/07/21 01:37:08;;;;;;;6.97;3.67;;;14.70;99.90;;;;;;5087677;28;20039;-65
2023/07/21 01:39:36;;;;;;;5.47;3.75;;;14.80;99.90;;;;;;5100671;28;20427;-65
2023/07/21 01:42:03;;;;;;;5.32;3.05;;;14.80;99.90;;;;;;5099481;28;20024;-65
2023/07/21 01:44:30;;;;;;;6.05;3.72;;;14.80;99.90;;;;;;5098682;28;20028;-66
2023/07/21 01:46:55;;;;;;;5.65;3.38;;;14.80;99.90;;;;;;5094506;28;20017;-65
2023/07/21 01:49:21;;;;;;;5.87;3.83;;;14.80;99.90;;;;;;5089751;28;20083;-66
2023/07/21 01:51:50;;;;;;;4.83;3.27;;;14.80;99.90;;;;;;5099194;28;20032;-66
2023/07/21 01:54:51;;;;;;;6.00;3.45;;;14.90;99.90;;;;;;5100908;28;20056;-65
2023/07/21 01:57:24;;;;;;;5.40;3.35;;;14.90;99.90;;;;;;5096357;28;20035;-65
2023/07/21 01:59:50;;;;;;;5.15;3.28;;;14.90;99.90;;;;;;5078512;28;20315;-65
2023/07/21 02:02:18;;;;;;;5.22;4.00;;;14.90;99.90;;;;;;5062251;28;20028;-75
2023/07/21 02:04:51;;;;;;;4.85;3.13;;;14.90;99.90;;;;;;5078377;28;20104;-65
2023/07/21 02:07:20;;;;;;;9.00;4.05;;;14.90;99.90;;;;;;5094056;28;20024;-65
2023/07/21 02:09:50;;;;;;;3.85;3.08;;;15.00;99.90;;;;;;5092384;28;20024;-66
2023/07/21 02:12:16;;;;;;;5.57;3.88;;;15.00;99.90;;;;;;5088589;28;20029;-65
2023/07/21 02:14:42;;;;;;;6.27;3.93;;;15.00;99.90;;;;;;5090709;28;20032;-65
2023/07/21 02:17:08;;;;;;;5.25;3.55;;;15.00;99.90;;;;;;5094641;28;20024;-65
2023/07/21 02:19:34;;;;;;;4.83;3.77;;;15.00;99.90;;;;;;5096407;28;20097;-65
2023/07/21 02:21:59;;;;;;;7.00;3.73;;;14.90;99.90;;;;;;5089562;28;20344;-65
2023/07/21 02:24:26;;;;;;;9.27;3.77;;;14.90;99.90;;;;;;5082823;28;20035;-65
2023/07/21 02:26:53;;;;;;;;;;;14.90;99.90;;;;;;5095804;28;20047;-79
2023/07/21 02:29:19;;;;;;;6.13;3.63;;;14.90;99.90;;;;;;5096723;28;19955;-66
2023/07/21 02:31:45;;;;;;;5.07;3.40;;;14.80;99.90;;;;;;5095637;28;20401;-65
2023/07/21 02:34:12;;;;;;;6.05;3.30;;;14.80;99.90;;;;;;5093390;28;20581;-65
2023/07/21 02:36:37;;;;;;;4.55;3.35;;;14.80;99.90;;;;;;5096401;28;20110;-65
2023/07/21 02:39:04;;;;;;;4.13;2.60;;;14.80;99.90;;;;;;5096067;28;20421;-66
2023/07/21 02:41:30;;;;;;;4.05;3.03;;;14.80;99.90;;;;;;5092589;28;20024;-66
2023/07/21 02:43:56;;;;;;;4.50;2.70;;;14.80;99.90;;;;;;5096382;28;20403;-67
2023/07/21 02:46:22;;;;;;;3.97;2.60;;;14.70;99.90;;;;;;5096576;28;20105;-66
2023/07/21 02:48:47;;;;;;;3.83;2.70;;;14.70;99.90;;;;;;5096435;28;20036;-66
2023/07/21 02:51:13;;;;;;;4.47;2.70;;;14.70;99.90;;;;;;5088391;28;20487;-66
2023/07/21 02:53:39;;;;;;;3.33;2.72;;;14.70;99.90;;;;;;5095744;28;20028;-66
2023/07/21 02:56:05;;;;;;;3.17;2.87;;;14.70;99.90;;;;;;5095787;28;20140;-66
2023/07/21 02:58:32;;;;;;;3.90;2.45;;;14.70;99.90;;;;;;5093290;28;20036;-66
2023/07/21 03:00:58;;;;;;;;;;;14.70;99.90;;;;;;5095055;28;20028;-67
2023/07/21 03:03:25;;;;;;;2.88;2.00;;;14.80;99.90;;;;;;5088098;28;19908;-66
2023/07/21 03:05:51;;;;;;;;;;;14.80;99.90;;;;;;5078087;28;20032;-66
2023/07/21 03:08:19;;;;;;;3.72;1.92;;;14.80;99.90;;;;;;5085793;28;19919;-66
2023/07/21 03:10:45;;;;;;;2.25;1.83;;;14.90;99.90;;;;;;5096078;28;20036;-78
2023/07/21 03:13:13;;;;;;;3.80;2.20;;;14.90;99.90;;;;;;5094175;28;20120;-66
2023/07/21 03:15:40;;;;;;;4.20;2.42;;;14.90;99.90;;;;;;5095683;28;20024;-65
2023/07/21 03:18:06;;;;;;;3.78;2.83;;;14.90;99.90;;;;;;5093725;28;20054;-66
2023/07/21 03:20:31;;;;;;;6.53;2.53;;;15.00;99.90;;;;;;5095808;28;20032;-66
2023/07/21 03:22:57;;;;;;;3.20;2.20;;;15.00;99.90;;;;;;5094817;28;20083;-66
2023/07/21 03:25:23;;;;;;;2.87;2.20;;;15.00;99.90;;;;;;5096009;28;20137;-66
2023/07/21 03:27:48;;;;;;;2.47;2.20;;;15.00;99.90;;;;;;5095669;28;20399;-66
2023/07/21 03:30:14;;;;;;;2.77;2.00;;;15.00;99.90;;;;;;5094020;28;20031;-65
2023/07/21 03:32:40;;;;;;;2.73;2.10;;;15.00;99.90;;;;;;5094955;28;20042;-65
2023/07/21 03:35:06;;;;;;;3.88;2.50;;;14.90;99.90;;;;;;5095024;28;20130;-65
2023/07/21 03:37:36;;;;;;;3.78;1.92;;;14.80;99.90;;;;;;5095610;28;20035;-66
2023/07/21 03:40:06;;;;;;;1.75;1.60;;;14.80;99.90;;;;;;5094743;28;20342;-65
2023/07/21 03:42:35;;;;;;;2.40;2.10;;;14.80;99.90;;;;;;5094312;28;20370;-65
2023/07/21 03:45:06;;;;;;;2.58;2.38;;;14.70;99.90;;;;;;5095197;28;20020;-66
2023/07/21 03:47:33;;;;;;;3.58;2.50;;;14.70;99.90;;;;;;5084266;28;20158;-65
2023/07/21 03:50:00;;;;;;;2.90;2.30;;;14.70;99.90;;;;;;5094097;28;20036;-65
2023/07/21 03:52:27;;;;;;;4.35;2.75;;;14.70;99.90;;;;;;5089617;28;20646;-65
2023/07/21 03:54:53;;;;;;;4.97;3.05;;;14.70;99.90;;;;;;5093390;28;20437;-65
2023/07/21 03:57:20;;;;;;;8.30;3.50;;;14.60;99.90;;;;;;5093521;28;20028;-65
2023/07/21 03:59:47;;;;;;;3.83;2.97;;;14.60;99.90;;;;;;5093883;28;20123;-78
2023/07/21 04:02:12;;;;;;;9.15;3.75;;;14.60;99.90;;;;;;5091812;28;20099;-65
2023/07/21 04:04:38;;;;;;;3.03;2.33;;;14.60;99.90;;;;;;5090836;28;20103;-65
2023/07/21 04:07:05;;;;;;;3.00;2.40;;;14.60;99.90;;;;;;5092448;28;20020;-65
2023/07/21 04:09:31;;;;;;;;;;;14.50;99.90;;;;;;5093450;28;20020;-65
2023/07/21 04:11:57;;;;;;;3.75;2.45;;;14.50;99.90;;;;;;5094374;28;20572;-66
2023/07/21 04:14:22;;;;;;;3.73;3.03;;;14.50;99.90;;;;;;5091026;28;20036;-65
2023/07/21 04:16:48;;;;;;;3.90;2.60;;;14.50;99.90;;;;;;5093117;28;20020;-66
2023/07/21 04:19:14;;;;;;;5.93;2.47;;;14.50;99.90;;;;;;5092483;28;20308;-65
2023/07/21 04:21:40;;;;;;;5.67;2.33;;;14.50;99.90;;;;;;5093496;28;20027;-66
2023/07/21 04:24:05;;;;;;;4.00;2.90;;;14.50;99.90;;;;;;5094161;28;20021;-67
2023/07/21 04:26:32;;;;;;;6.63;3.53;;;14.40;99.90;;;;;;5093007;28;20432;-65
2023/07/21 04:28:58;;;;;;;3.97;2.60;;;14.40;99.90;;;;;;5083133;28;20066;-65
2023/07/21 04:31:28;;;;;;;3.50;2.80;;;14.50;99.90;;;;;;5081264;28;20028;-78
2023/07/21 04:33:55;;;;;;;3.28;2.70;;;14.40;99.90;;;;;;5088257;28;20028;-78
2023/07/21 04:36:21;;;;;;;3.80;2.55;;;14.40;99.90;;;;;;5094777;28;20016;-66
2023/07/21 04:38:47;;;;;;;5.00;3.45;;;14.40;99.90;;;;;;5093225;28;20057;-65
2023/07/21 04:41:13;;;;;;;4.72;2.83;;;14.40;99.90;;;;;;5094778;28;20424;-65
2023/07/21 04:43:40;;;;;;;5.15;2.65;;;14.40;99.90;;;;;;5094004;28;20027;-66
2023/07/21 04:46:05;;;;;;;4.63;2.70;;;14.40;99.90;;;;;;5094402;28;20441;-65
2023/07/21 04:48:31;;;;;;;4.20;2.77;;;14.40;99.90;;;;;;5092696;28;20028;-66
2023/07/21 04:50:57;;;;;;;3.90;3.00;;;14.40;99.90;;;;;;5094497;28;20165;-66
2023/07/21 04:53:23;;;;;;;3.03;2.43;;;14.50;99.90;;;;;;5093656;28;20040;-65
2023/07/21 04:55:54;;;;;;;5.80;1.95;;;14.50;99.90;;;;;;5093123;28;20107;-65
2023/07/21 04:58:19;;;;;;;4.75;2.50;;;14.50;99.90;;;;;;5080332;28;20032;-65
2023/07/21 05:00:45;;;;;;;5.37;2.73;;;14.50;99.90;;;;;;5094184;28;20028;-65
2023/07/21 05:03:11;;;;;;;4.10;3.10;;;14.50;99.90;;;;;;5075325;28;20051;-66
2023/07/21 05:05:38;;;;;;;5.63;3.00;;;14.60;99.90;;;;;;5087833;28;20044;-65
2023/07/21 05:08:04;;;;;;;6.90;3.42;;;14.70;99.90;;;;;;5089958;28;20008;-78
2023/07/21 05:10:31;;;;;;;5.43;3.43;;;14.80;99.90;;;;;;5086333;28;20028;-66
2023/07/21 05:12:57;;;;;;;5.97;3.38;;;14.80;99.90;;;;;;5093356;28;20020;-65
2023/07/21 05:15:24;;;;;;;4.78;3.35;;;14.80;99.90;;;;;;5094349;28;20035;-65
2023/07/21 05:17:50;;;;;;;;;;;14.90;99.90;;;;;;5088093;28;20021;-66
2023/07/21 05:20:16;;;;;;;6.53;3.42;;;15.00;99.90;;;;;;5093925;28;19915;-65
2023/07/21 05:22:42;;;;;;;8.73;3.27;;;15.00;99.90;;;;;;5093897;28;20462;-66
2023/07/21 05:25:11;;;;;;;6.23;4.20;;;14.90;99.90;;;;;;5087825;28;20012;-73
2023/07/21 05:27:37;;;;;;;6.03;4.13;;;15.00;99.90;;;;;;5092088;28;20407;-66
2023/07/21 05:30:03;;;;;;;7.03;4.53;;;15.00;99.90;;;;;;5062949;28;20048;-66
2023/07/21 05:32:29;;;;;;;7.90;4.17;;;15.10;99.90;;;;;;5097751;28;20028;-65
2023/07/21 05:34:55;;;;;;;5.90;4.13;;;15.10;99.90;;;;;;5097659;28;20261;-66
2023/07/21 05:37:21;;;;;;;4.67;3.37;;;15.10;99.90;;;;;;5096983;28;20130;-65
2023/07/21 05:39:46;;;;;;;17.83;4.60;;;15.20;99.90;;;;;;5097179;28;20077;-65
2023/07/21 05:42:13;;;;;;;32.20;5.90;;;15.30;99.90;;;;;;5098280;28;20020;-78
2023/07/21 05:44:38;;;;;;;6.05;3.85;;;15.40;99.90;;;;;;5091276;28;20034;-65
2023/07/21 05:47:04;;;;;;;6.40;3.63;;;15.50;99.90;;;;;;5097399;28;20337;-65
2023/07/21 05:49:30;;;;;;;3.70;3.13;;;15.60;99.90;;;;;;5096960;28;20456;-66
2023/07/21 05:51:56;;;;;;;7.00;3.93;;;15.60;99.90;;;;;;5079052;28;20039;-66
2023/07/21 05:54:21;;;;;;;4.20;3.20;;;15.60;99.90;;;;;;5085635;28;20039;-66
2023/07/21 05:56:47;;;;;;;4.20;2.73;;;15.70;99.90;;;;;;5097457;28;20032;-66
2023/07/21 05:59:13;;;;;;;8.67;3.40;;;15.80;99.90;;;;;;5096645;28;20035;-70
2023/07/21 06:01:39;;;;;;;6.37;3.43;;;15.80;99.90;;;;;;5096956;28;20028;-66
2023/07/21 06:04:05;;;;;;;4.87;3.30;;;15.80;99.90;;;;;;5084408;28;20078;-78
2023/07/21 06:06:32;;;;;;;4.80;3.20;;;15.90;99.90;;;;;;5081225;28;20442;-79
2023/07/21 06:09:00;;;;;;;4.32;3.15;;;16.00;99.90;;;;;;5098192;28;20449;-66
2023/07/21 06:11:26;;;;;;;5.28;2.75;;;16.00;99.90;;;;;;5099408;28;20027;-65
2023/07/21 06:13:53;;;;;;;10.10;3.10;;;16.00;99.90;;;;;;5078523;28;20063;-65
2023/07/21 06:16:19;;;;;;;;;;;16.10;99.90;;;;;;5082434;28;20028;-78
2023/07/21 06:18:45;;;;;;;2.83;2.05;;;16.10;99.90;;;;;;5088382;28;20390;-66
2023/07/21 06:21:14;;;;;;;2.35;1.85;;;16.20;99.90;;;;;;5095633;28;20684;-66
2023/07/21 06:23:39;;;;;;;3.08;2.50;;;16.20;99.90;;;;;;5090959;28;20050;-65
2023/07/21 06:26:05;;;;;;;2.73;2.33;;;16.30;99.90;;;;;;5095805;28;20024;-66
2023/07/21 06:28:31;;;;;;;3.10;2.33;;;16.30;99.90;;;;;;5096299;28;20016;-65
2023/07/21 06:30:56;;;;;;;4.20;2.43;;;16.40;99.90;;;;;;5097086;28;20067;-65
2023/07/21 06:33:22;;;;;;;2.90;2.40;;;16.50;99.90;;;;;;5077456;28;20373;-78
2023/07/21 06:35:50;;;;;;;2.97;2.42;;;16.50;99.90;;;;;;5096437;28;20422;-66
2023/07/21 06:38:15;;;;;;;4.13;2.70;;;16.60;99.90;;;;;;5095983;28;20039;-65
2023/07/21 06:40:41;;;;;;;4.40;2.87;;;16.60;99.90;;;;;;5084175;28;20028;-65
2023/07/21 06:43:07;;;;;;;2.47;1.87;;;16.60;99.90;;;;;;5096039;28;20032;-66
2023/07/21 06:45:33;;;;;;;5.00;2.53;;;16.70;99.90;;;;;;5090005;28;20020;-65
2023/07/21 06:47:59;;;;;;;2.97;2.22;;;16.70;99.90;;;;;;5093447;28;20352;-65
2023/07/21 06:50:25;;;;;;;4.32;2.42;;;16.70;99.90;;;;;;5095276;28;20514;-77
2023/07/21 06:52:51;;;;;;;7.93;2.77;;;16.80;99.90;;;;;;5090369;28;20103;-65
2023/07/21 06:55:17;;;;;;;2.65;1.95;;;16.80;99.90;;;;;;5090112;28;20066;-67
2023/07/21 06:57:43;;;;;;;4.15;2.83;;;16.90;99.90;;;;;;5093257;28;20056;-65
2023/07/21 07:00:12;;;;;;;5.27;3.07;;;16.90;99.90;;;;;;5095806;28;20034;-65
2023/07/21 07:02:38;;;;;;;6.55;2.80;;;17.00;99.90;;;;;;5093791;28;20287;-65
2023/07/21 07:05:04;;;;;;;10.48;3.67;;;17.00;99.90;;;;;;5091516;28;20049;-65
2023/07/21 07:07:30;;;;;;;4.73;3.30;;;17.00;99.90;;;;;;5093071;28;20020;-80
2023/07/21 07:09:56;;;;;;;3.80;2.77;;;17.10;99.90;;;;;;5092235;28;20259;-65
2023/07/21 07:12:22;;;;;;;3.47;2.25;;;17.10;99.90;;;;;;5095296;28;20039;-65
2023/07/21 07:14:48;;;;;;;2.10;1.83;;;17.10;99.90;;;;;;5091413;28;20347;-65
2023/07/21 07:17:14;;;;;;;3.20;2.00;;;17.10;99.90;;;;;;5095405;28;20028;-66
2023/07/21 07:19:40;;;;;;;2.57;2.20;;;17.10;99.90;;;;;;5089333;28;20041;-65
2023/07/21 07:22:08;;;;;;;4.70;2.75;;;17.10;99.90;;;;;;5095409;28;20032;-65
2023/07/21 07:24:35;;;;;;;7.10;3.88;;;17.10;99.90;;;;;;5094856;28;20099;-65
2023/07/21 07:27:01;;;;;;;6.85;4.25;;;17.20;99.90;;;;;;5091328;28;20016;-65
2023/07/21 07:29:27;;;;;;;7.50;3.80;;;17.20;99.90;;;;;;5092282;28;20036;-65
2023/07/21 07:31:53;;;;;;;6.00;3.90;;;17.30;99.90;;;;;;5077384;28;20446;-65
2023/07/21 07:34:18;;;;;;;7.07;4.53;;;17.30;99.90;;;;;;5092955;28;20031;-65
2023/07/21 07:36:44;;;;;;;15.67;4.83;;;17.40;99.90;;;;;;5094503;28;20099;-65
2023/07/21 07:39:11;;;;;;;7.45;4.43;;;17.40;99.90;;;;;;5095459;28;20024;-66
2023/07/21 07:41:38;;;;;;;7.75;4.70;;;17.50;99.90;;;;;;5072430;28;20115;-65
2023/07/21 07:44:06;;;;;;;7.90;4.50;;;17.50;99.90;;;;;;5092016;28;20016;-65
2023/07/21 07:46:32;;;;;;;7.53;4.75;;;17.60;99.90;;;;;;5093417;28;20024;-65
2023/07/21 07:48:57;;;;;;;9.23;5.10;;;17.50;99.90;;;;;;5094075;28;20501;-65
2023/07/21 07:51:23;;;;;;;10.03;5.20;;;17.60;99.90;;;;;;5071617;28;20427;-81
2023/07/21 07:53:49;;;;;;;8.90;5.67;;;17.70;99.90;;;;;;5091401;28;20059;-66
2023/07/21 07:56:15;;;;;;;8.03;4.87;;;17.70;99.90;;;;;;5092888;28;20052;-80
2023/07/21 07:58:41;;;;;;;8.27;4.60;;;17.80;99.90;;;;;;5079981;28;20446;-66
2023/07/21 08:01:07;;;;;;;9.30;5.28;;;17.90;99.90;;;;;;5087586;28;20032;-66
2023/07/21 08:03:32;;;;;;;7.27;4.93;;;17.90;99.90;;;;;;5088481;28;20035;-66
2023/07/21 08:05:59;;;;;;;6.97;4.60;;;18.00;99.90;;;;;;5087950;28;20095;-67
2023/07/21 08:08:25;;;;;;;7.47;4.03;;;18.10;99.90;;;;;;5087742;28;20063;-87
2023/07/21 08:10:51;;;;;;;8.35;4.65;;;18.20;99.90;;;;;;5082927;28;20036;-65
2023/07/21 08:13:17;;;;;;;6.97;4.07;;;18.30;99.90;;;;;;5084909;28;20040;-66
2023/07/21 08:15:44;;;;;;;6.47;3.90;;;18.40;99.90;;;;;;5081470;28;20029;-67
2023/07/21 08:18:13;;;;;;;4.72;3.35;;;18.50;99.90;;;;;;5085270;28;20377;-67
2023/07/21 08:20:40;;;;;;;3.72;2.65;;;18.50;99.90;;;;;;5084554;28;20039;-66
2023/07/21 08:23:06;;;;;;;5.20;2.80;;;18.70;99.90;;;;;;5081943;28;20012;-66
2023/07/21 08:25:32;;;;;;;3.15;2.10;;;18.70;99.90;;;;;;5083375;28;20032;-66
2023/07/21 08:28:03;;;;;;;2.87;2.33;;;18.80;99.90;;;;;;5087181;28;20024;-66
2023/07/21 08:30:29;;;;;;;2.88;2.10;;;18.80;99.90;;;;;;5084805;28;20028;-66
2023/07/21 08:32:58;;;;;;;3.42;2.58;;;18.80;99.90;;;;;;5087976;28;20323;-88
2023/07/21 08:35:24;;;;;;;2.15;1.45;;;18.80;99.90;;;;;;5091942;28;20040;-66
2023/07/21 08:37:50;;;;;;;2.28;1.30;;;18.80;99.90;;;;;;5088795;28;20142;-76
2023/07/21 08:40:16;;;;;;;2.30;1.40;;;18.80;99.90;;;;;;5091019;28;20111;-65
2023/07/21 08:42:42;;;;;;;4.07;1.98;;;18.90;99.90;;;;;;5085525;28;20024;-66
2023/07/21 08:45:08;;;;;;;1.48;1.23;;;18.90;99.90;;;;;;5090287;28;20028;-77
2023/07/21 08:47:35;;;;;;;1.45;1.35;;;18.90;99.90;;;;;;5090111;28;20335;-65
2023/07/21 08:50:04;;;;;;;1.30;1.20;;;19.10;99.90;;;;;;5085733;28;20061;-81
2023/07/21 08:52:33;;;;;;;3.03;1.65;;;19.10;99.90;;;;;;5086912;28;20032;-65
2023/07/21 08:55:00;;;;;;;2.95;1.92;;;19.20;99.90;;;;;;5086799;28;20028;-66
2023/07/21 08:57:27;;;;;;;2.63;1.52;;;19.30;99.90;;;;;;5094084;28;20123;-66
2023/07/21 08:59:56;;;;;;;;;;;19.30;99.90;;;;;;5089544;28;20039;-66
2023/07/21 09:02:44;;;;;;;4.13;2.17;;;19.30;99.90;;;;;;5086614;28;19955;-66
2023/07/21 09:05:18;;;;;;;3.17;2.00;;;19.40;99.90;;;;;;5071396;28;20027;-66
2023/07/21 09:07:45;;;;;;;2.83;1.50;;;19.50;99.90;;;;;;5096127;28;20031;-66
2023/07/21 09:10:12;;;;;;;2.10;1.13;;;19.50;99.90;;;;;;5085145;28;20031;-66
2023/07/21 09:12:38;;;;;;;4.72;1.58;;;19.50;99.90;;;;;;5094666;28;20099;-66
2023/07/21 09:15:10;;;;;;;2.55;1.83;;;19.70;99.90;;;;;;5091945;28;20035;-65
2023/07/21 09:17:43;;;;;;;1.85;1.20;;;19.80;99.90;;;;;;5081070;28;20060;-66
2023/07/21 09:20:10;;;;;;;2.33;1.20;;;19.90;99.90;;;;;;5085283;28;20635;-67
2023/07/21 09:22:36;;;;;;;1.48;1.23;;;19.90;99.90;;;;;;5082482;28;20111;-66
2023/07/21 09:25:02;;;;;;;3.87;1.73;;;20.00;99.90;;;;;;5084583;28;20107;-66
2023/07/21 09:27:27;;;;;;;1.73;1.25;;;20.00;99.90;;;;;;5094611;28;20436;-66
2023/07/21 09:30:00;;;;;;;1.73;1.37;;;20.00;99.90;;;;;;5092640;28;20032;-67
2023/07/21 09:32:27;;;;;;;2.42;1.60;;;20.00;99.90;;;;;;5095309;28;20318;-66
2023/07/21 09:34:57;;;;;;;4.22;2.10;;;20.00;99.90;;;;;;5097968;28;20057;-85
2023/07/21 09:37:29;;;;;;;5.28;1.55;;;20.10;99.90;;;;;;5094076;28;20503;-66
2023/07/21 09:40:09;;;;;;;2.05;1.38;;;19.90;99.90;;;;;;5086536;28;20032;-66
2023/07/21 09:42:35;;;;;;;2.53;1.63;;;20.00;99.90;;;;;;5089586;28;20377;-67
2023/07/21 09:45:01;;;;;;;1.85;1.60;;;20.30;99.90;;;;;;5092704;28;20077;-66
2023/07/21 09:47:27;;;;;;;3.03;1.40;;;20.60;99.90;;;;;;5088214;28;20033;-66
2023/07/21 09:49:54;;;;;;;2.88;1.40;;;20.90;99.90;;;;;;5089746;28;20042;-66
2023/07/21 09:52:22;;;;;;;1.65;1.30;;;20.90;99.90;;;;;;5084334;28;20064;-66
2023/07/21 09:55:09;;;;;;;1.77;1.40;;;21.10;99.90;;;;;;5094353;28;20036;-66
2023/07/21 09:57:47;;;;;;;2.72;1.40;;;21.30;99.90;;;;;;5082233;28;20115;-67
2023/07/21 10:00:15;;;;;;;2.58;1.58;;;21.40;99.90;;;;;;5075437;28;20086;-66
2023/07/21 10:02:46;;;;;;;2.75;1.55;;;21.40;99.90;;;;;;5093660;28;20104;-67
2023/07/21 10:05:13;;;;;;;2.95;1.48;;;21.20;99.90;;;;;;5083550;28;20025;-66
2023/07/21 10:07:45;;;;;;;2.25;1.67;;;21.40;99.90;;;;;;5084107;28;20107;-66
2023/07/21 10:10:12;;;;;;;1.35;1.17;;;21.50;99.90;;;;;;5083756;28;20052;-67
2023/07/21 10:12:52;;;;;;;;;;;21.70;99.90;;;;;;5084465;28;20021;-66
2023/07/21 10:15:19;;;;;;;4.55;1.50;;;21.90;99.90;;;;;;5077447;28;19999;-67
2023/07/21 10:17:57;;;;;;;2.13;1.30;;;21.90;99.90;;;;;;5091399;28;20446;-67
2023/07/21 10:20:38;;;;;;;2.28;1.33;;;21.90;99.90;;;;;;5092726;28;20460;-67
2023/07/21 10:23:04;;;;;;;1.75;1.35;;;21.70;99.90;;;;;;5087575;28;20070;-67
2023/07/21 10:25:45;;;;;;;1.20;1.10;;;21.80;99.90;;;;;;5085354;28;20027;-67
2023/07/21 10:28:13;;;;;;;1.95;1.55;;;22.10;99.90;;;;;;5084861;28;20086;-90
2023/07/21 10:30:38;;;;;;;2.50;1.50;;;22.30;99.90;;;;;;5088403;28;20100;-66
2023/07/21 10:33:16;;;;;;;3.43;1.30;;;22.50;99.90;;;;;;5085655;28;20156;-67
2023/07/21 10:35:41;;;;;;;3.25;1.25;;;22.60;99.90;;;;;;5089002;28;20107;-89
2023/07/21 10:38:13;;;;;;;1.27;1.17;;;22.70;99.90;;;;;;5089806;28;20119;-67
2023/07/21 10:40:43;;;;;;;1.77;1.33;;;22.70;99.90;;;;;;5093962;28;20031;-66
2023/07/21 10:43:09;;;;;;;1.30;1.10;;;22.50;99.90;;;;;;5088184;28;20030;-81
2023/07/21 10:45:35;;;;;;;3.03;1.05;;;22.40;99.90;;;;;;5087168;28;20008;-67
2023/07/21 10:48:11;;;;;;;3.08;1.10;;;22.00;99.90;;;;;;5096526;28;20028;-66
2023/07/21 10:50:41;;;;;;;3.30;1.45;;;21.50;99.90;;;;;;5093845;28;20036;-68
2023/07/21 10:53:07;;;;;;;5.63;1.08;;;20.60;99.90;;;;;;5086152;28;20028;-68
2023/07/21 10:55:36;;;;;;;0.65;0.65;;;19.20;99.90;;;;;;5078144;28;20314;-67
2023/07/21 10:58:02;;;;;;;2.90;1.30;;;18.40;99.90;;;;;;5088452;28;20099;-68
2023/07/21 11:00:28;;;;;;;2.95;1.80;;;18.00;99.90;;;;;;5099585;28;20035;-67
2023/07/21 11:02:54;;;;;;;1.40;0.90;;;17.80;99.90;;;;;;5078952;28;20026;-67
2023/07/21 11:05:22;;;;;;;1.40;1.10;;;17.60;99.90;;;;;;5095112;28;20090;-67
2023/07/21 11:07:50;;;;;;;1.27;0.95;;;17.40;99.90;;;;;;5089323;28;20248;-68
2023/07/21 11:10:16;;;;;;;1.40;0.80;;;17.20;99.90;;;;;;5096298;28;20042;-67
2023/07/21 11:12:48;;;;;;;1.27;0.97;;;17.10;99.90;;;;;;5090606;28;20111;-67
2023/07/21 11:15:17;;;;;;;1.20;1.00;;;16.90;99.90;;;;;;5084246;28;20468;-90
2023/07/21 11:17:44;;;;;;;1.08;0.95;;;16.80;99.90;;;;;;5071987;28;20341;-67
2023/07/21 11:20:10;;;;;;;0.93;0.70;;;16.70;99.90;;;;;;5090290;28;20047;-67
2023/07/21 11:22:36;;;;;;;2.30;0.93;;;16.70;99.90;;;;;;5086044;28;20037;-67
2023/07/21 11:25:11;;;;;;;1.13;0.95;;;16.60;99.90;;;;;;5079171;28;20020;-67
2023/07/21 11:27:44;;;;;;;3.63;1.20;;;16.50;99.90;;;;;;5084398;28;20506;-67
2023/07/21 11:30:15;;;;;;;1.42;0.90;;;16.50;99.90;;;;;;5087253;28;20020;-79
2023/07/21 11:32:41;;;;;;;1.88;1.00;;;16.50;99.90;;;;;;5072707;28;20105;-67
2023/07/21 11:35:07;;;;;;;1.57;1.23;;;16.50;99.90;;;;;;5089721;28;20051;-67
2023/07/21 11:37:38;;;;;;;1.40;1.30;;;16.50;99.90;;;;;;5085327;28;20028;-67
2023/07/21 11:40:14;;;;;;;1.60;1.50;;;16.60;99.90;;;;;;5090794;28;20032;-67
2023/07/21 11:42:47;;;;;;;1.85;1.40;;;16.70;99.90;;;;;;5070007;28;20284;-67
2023/07/21 11:45:39;;;;;;;2.03;1.35;;;16.80;99.90;;;;;;5090491;28;20115;-68
2023/07/21 11:48:15;;;;;;;2.08;1.30;;;16.90;99.90;;;;;;5085700;28;20369;-81
2023/07/21 11:50:52;;;;;;;2.58;1.48;;;17.10;99.90;;;;;;5076640;28;20055;-69
2023/07/21 11:53:22;;;;;;;2.58;1.70;;;17.30;99.90;;;;;;5088555;28;20043;-68
2023/07/21 11:55:49;;;;;;;2.50;1.65;;;17.50;99.90;;;;;;5092706;28;20095;-67
2023/07/21 11:58:15;;;;;;;2.15;1.70;;;17.70;99.90;;;;;;5087453;28;20276;-86
2023/07/21 12:00:42;;;;;;;2.33;1.57;;;17.80;99.90;;;;;;5094272;28;20100;-67
2023/07/21 12:03:12;;;;;;;1.50;1.30;;;17.90;99.90;;;;;;5070640;28;20074;-66
2023/07/21 12:05:38;;;;;;;1.95;1.58;;;18.10;99.90;;;;;;5092964;28;20016;-67
2023/07/21 12:08:06;;;;;;;1.45;1.17;;;18.20;99.90;;;;;;5075713;28;20345;-67
2023/07/21 12:10:32;;;;;;;1.52;1.30;;;18.30;99.90;;;;;;5075732;28;20045;-67
2023/07/21 12:12:58;;;;;;;1.65;1.27;;;18.30;99.90;;;;;;5079464;28;20024;-68
2023/07/21 12:15:24;;;;;;;1.50;1.20;;;18.30;99.90;;;;;;5093302;28;20028;-89
2023/07/21 12:17:49;;;;;;;1.53;1.30;;;18.30;99.90;;;;;;5091391;28;20027;-91
2023/07/21 12:20:17;;;;;;;1.13;0.93;;;18.30;99.90;;;;;;5091650;28;20036;-67
2023/07/21 12:22:43;;;;;;;1.10;1.00;;;18.20;99.90;;;;;;5095034;28;20023;-67
2023/07/21 12:25:09;;;;;;;1.38;1.05;;;18.40;99.90;;;;;;5086163;28;20133;-68
2023/07/21 12:27:36;;;;;;;1.23;1.13;;;18.40;99.90;;;;;;5094328;28;20056;-68
2023/07/21 12:30:06;;;;;;;2.20;1.20;;;18.60;99.90;;;;;;5094300;28;20028;-69
2023/07/21 12:32:32;;;;;;;2.28;1.20;;;18.80;99.90;;;;;;5077094;28;20055;-69
2023/07/21 12:34:57;;;;;;;2.70;1.40;;;19.00;99.90;;;;;;5088278;28;20024;-68
2023/07/21 12:37:23;;;;;;;1.30;1.20;;;19.20;99.90;;;;;;5094836;28;20055;-91
2023/07/21 12:39:50;;;;;;;1.70;1.20;;;19.20;99.90;;;;;;5093942;28;20094;-69
2023/07/21 12:42:16;;;;;;;1.58;1.27;;;19.00;99.90;;;;;;5094370;28;20149;-75
2023/07/21 12:44:42;;;;;;;2.80;1.47;;;18.90;99.90;;;;;;5076681;28;20115;-83
2023/07/21 12:47:09;;;;;;;2.78;1.67;;;18.70;99.90;;;;;;5075651;28;20027;-69
2023/07/21 12:49:34;;;;;;;2.33;1.35;;;18.50;99.90;;;;;;5094442;28;20044;-83